sensor_id;sensor_type;location;lat;lon;timestamp;pressure;altitude;pressure_sealevel;temperature;humidity
47104;BME280;32853;52.164;5.400;2023-03-01T00:02:17;103148.66;;;2.47;100.00
47104;BME280;32853;52.164;5.400;2023-03-01T00:04:42;103160.56;;;2.43;100.00
47104;BME280;32853;52.164;5.400;2023-03-01T00:07:07;103162.28;;;2.43;100.00
47104;BME280;32853;52.164;5.400;2023-03-01T00:09:33;103102.56;;;2.03;100.00
47104;BME280;32853;52.164;5.400;2023-03-01T00:11:58;103165.88;;;2.46;100.00
47104;BME280;32853;52.164;5.400;2023-03-01T00:14:23;103171.75;;;2.42;100.00
47104;BME280;32853;52.164;5.400;2023-03-01T00:17:12;103167.44;;;2.43;100.00
47104;BME280;32853;52.164;5.400;2023-03-01T00:19:38;103174.31;;;2.42;100.00
47104;BME280;32853;52.164;5.400;2023-03-01T00:22:03;103129.72;;;2.19;100.00
47104;BME280;32853;52.164;5.400;2023-03-01T00:24:36;103118.28;;;2.11;100.00
47104;BME280;32853;52.164;5.400;2023-03-01T00:27:02;103096.19;;;1.92;100.00
47104;BME280;32853;52.164;5.400;2023-03-01T00:29:27;103132.28;;;2.19;100.00
47104;BME280;32853;52.164;5.400;2023-03-01T00:31:52;103158.69;;;2.38;100.00
47104;BME280;32853;52.164;5.400;2023-03-01T00:34:18;103157.00;;;2.38;100.00
47104;BME280;32853;52.164;5.400;2023-03-01T00:39:54;103151.75;;;2.35;100.00
47104;BME280;32853;52.164;5.400;2023-03-01T00:42:20;103074.31;;;1.81;100.00
47104;BME280;32853;52.164;5.400;2023-03-01T00:44:47;103151.50;;;2.27;100.00
47104;BME280;32853;52.164;5.400;2023-03-01T00:47:13;103165.03;;;2.20;100.00
47104;BME280;32853;52.164;5.400;2023-03-01T00:49:39;103107.03;;;1.82;100.00
47104;BME280;32853;52.164;5.400;2023-03-01T00:52:04;103098.84;;;1.95;100.00
47104;BME280;32853;52.164;5.400;2023-03-01T00:54:44;103153.00;;;2.21;100.00
47104;BME280;32853;52.164;5.400;2023-03-01T00:57:15;103137.03;;;2.06;100.00
47104;BME280;32853;52.164;5.400;2023-03-01T00:59:41;103122.84;;;1.93;100.00
47104;BME280;32853;52.164;5.400;2023-03-01T01:02:11;103139.81;;;2.12;100.00
47104;BME280;32853;52.164;5.400;2023-03-01T01:04:48;103153.66;;;2.14;100.00
47104;BME280;32853;52.164;5.400;2023-03-01T01:07:25;103099.63;;;1.93;100.00
47104;BME280;32853;52.164;5.400;2023-03-01T01:09:50;103077.88;;;1.85;100.00
47104;BME280;32853;52.164;5.400;2023-03-01T01:12:15;103098.22;;;2.02;100.00
47104;BME280;32853;52.164;5.400;2023-03-01T01:14:48;103083.91;;;1.85;100.00
47104;BME280;32853;52.164;5.400;2023-03-01T01:17:16;103125.16;;;2.11;100.00
47104;BME280;32853;52.164;5.400;2023-03-01T01:19:51;103129.38;;;2.09;100.00
47104;BME280;32853;52.164;5.400;2023-03-01T01:22:23;103116.13;;;2.25;100.00
47104;BME280;32853;52.164;5.400;2023-03-01T01:24:49;103124.50;;;2.18;100.00
47104;BME280;32853;52.164;5.400;2023-03-01T01:27:20;103113.81;;;2.06;100.00
47104;BME280;32853;52.164;5.400;2023-03-01T01:29:46;103112.63;;;1.96;100.00
47104;BME280;32853;52.164;5.400;2023-03-01T01:32:11;103038.34;;;1.59;100.00
47104;BME280;32853;52.164;5.400;2023-03-01T01:34:36;103056.44;;;1.60;100.00
47104;BME280;32853;52.164;5.400;2023-03-01T01:37:03;103111.63;;;1.91;100.00
47104;BME280;32853;52.164;5.400;2023-03-01T01:39:36;103113.19;;;1.87;100.00
47104;BME280;32853;52.164;5.400;2023-03-01T01:42:17;103113.41;;;1.93;100.00
47104;BME280;32853;52.164;5.400;2023-03-01T01:44:47;103114.94;;;1.88;100.00
47104;BME280;32853;52.164;5.400;2023-03-01T01:47:14;103022.13;;;1.36;100.00
47104;BME280;32853;52.164;5.400;2023-03-01T01:49:56;103072.22;;;1.69;100.00
47104;BME280;32853;52.164;5.400;2023-03-01T01:52:34;103101.03;;;1.83;100.00
47104;BME280;32853;52.164;5.400;2023-03-01T01:55:02;103101.09;;;1.85;100.00
47104;BME280;32853;52.164;5.400;2023-03-01T01:57:56;103100.94;;;1.80;100.00
47104;BME280;32853;52.164;5.400;2023-03-01T02:00:26;103092.91;;;1.71;100.00
47104;BME280;32853;52.164;5.400;2023-03-01T02:03:03;103035.84;;;1.35;100.00
47104;BME280;32853;52.164;5.400;2023-03-01T02:08:14;103012.25;;;1.23;100.00
47104;BME280;32853;52.164;5.400;2023-03-01T02:10:49;103056.84;;;1.45;100.00
47104;BME280;32853;52.164;5.400;2023-03-01T02:13:17;103090.09;;;1.65;100.00
47104;BME280;32853;52.164;5.400;2023-03-01T02:15:42;103077.56;;;1.49;100.00
47104;BME280;32853;52.164;5.400;2023-03-01T02:18:13;103109.50;;;1.54;100.00
47104;BME280;32853;52.164;5.400;2023-03-01T02:23:38;103021.56;;;1.19;100.00
47104;BME280;32853;52.164;5.400;2023-03-01T02:28:32;103083.63;;;1.51;100.00
47104;BME280;32853;52.164;5.400;2023-03-01T02:31:16;102874.63;;;0.16;100.00
47104;BME280;32853;52.164;5.400;2023-03-01T02:34:01;103082.91;;;1.55;100.00
47104;BME280;32853;52.164;5.400;2023-03-01T02:36:39;103092.41;;;1.56;100.00
47104;BME280;32853;52.164;5.400;2023-03-01T02:39:13;103084.47;;;1.50;100.00
47104;BME280;32853;52.164;5.400;2023-03-01T02:44:38;103038.91;;;1.23;100.00
47104;BME280;32853;52.164;5.400;2023-03-01T02:47:07;103065.13;;;1.37;100.00
47104;BME280;32853;52.164;5.400;2023-03-01T02:49:37;103018.50;;;1.05;100.00
47104;BME280;32853;52.164;5.400;2023-03-01T02:55:18;103056.59;;;1.39;100.00
47104;BME280;32853;52.164;5.400;2023-03-01T02:57:44;103012.34;;;1.00;100.00
47104;BME280;32853;52.164;5.400;2023-03-01T03:03:12;103060.66;;;1.33;100.00
47104;BME280;32853;52.164;5.400;2023-03-01T03:05:43;103031.66;;;1.13;100.00
47104;BME280;32853;52.164;5.400;2023-03-01T03:08:08;103042.22;;;0.95;100.00
47104;BME280;32853;52.164;5.400;2023-03-01T03:10:37;103054.97;;;1.16;100.00
47104;BME280;32853;52.164;5.400;2023-03-01T03:13:10;103051.69;;;1.22;100.00
47104;BME280;32853;52.164;5.400;2023-03-01T03:15:38;103053.03;;;1.10;100.00
47104;BME280;32853;52.164;5.400;2023-03-01T03:18:06;102883.13;;;0.13;100.00
47104;BME280;32853;52.164;5.400;2023-03-01T03:20:32;103046.06;;;1.08;100.00
47104;BME280;32853;52.164;5.400;2023-03-01T03:22:58;102940.72;;;0.41;100.00
47104;BME280;32853;52.164;5.400;2023-03-01T03:25:27;102905.06;;;0.27;100.00
47104;BME280;32853;52.164;5.400;2023-03-01T03:27:53;102921.91;;;0.43;100.00
47104;BME280;32853;52.164;5.400;2023-03-01T03:30:23;103025.28;;;1.02;100.00
47104;BME280;32853;52.164;5.400;2023-03-01T03:32:49;103023.75;;;1.08;100.00
47104;BME280;32853;52.164;5.400;2023-03-01T03:35:22;102944.34;;;0.46;100.00
47104;BME280;32853;52.164;5.400;2023-03-01T03:38:09;103020.28;;;0.82;100.00
47104;BME280;32853;52.164;5.400;2023-03-01T03:40:43;103015.06;;;0.79;100.00
47104;BME280;32853;52.164;5.400;2023-03-01T03:43:12;102988.72;;;0.64;100.00
47104;BME280;32853;52.164;5.400;2023-03-01T03:45:49;102918.16;;;0.34;100.00
47104;BME280;32853;52.164;5.400;2023-03-01T03:48:16;103032.78;;;0.96;100.00
47104;BME280;32853;52.164;5.400;2023-03-01T03:50:47;102881.44;;;0.14;100.00
47104;BME280;32853;52.164;5.400;2023-03-01T03:53:14;102806.03;;;-0.33;100.00
47104;BME280;32853;52.164;5.400;2023-03-01T03:55:50;102889.16;;;0.14;100.00
47104;BME280;32853;52.164;5.400;2023-03-01T03:58:32;102997.94;;;0.81;100.00
47104;BME280;32853;52.164;5.400;2023-03-01T04:01:06;102974.84;;;0.59;100.00
47104;BME280;32853;52.164;5.400;2023-03-01T04:03:32;102992.13;;;0.63;100.00
47104;BME280;32853;52.164;5.400;2023-03-01T04:05:59;102936.78;;;0.26;100.00
47104;BME280;32853;52.164;5.400;2023-03-01T04:08:25;103031.09;;;0.72;100.00
47104;BME280;32853;52.164;5.400;2023-03-01T04:10:52;103036.25;;;0.72;100.00
47104;BME280;32853;52.164;5.400;2023-03-01T04:13:22;103036.19;;;0.71;100.00
47104;BME280;32853;52.164;5.400;2023-03-01T04:15:52;102856.72;;;-0.29;100.00
47104;BME280;32853;52.164;5.400;2023-03-01T04:18:20;103013.66;;;0.65;100.00
47104;BME280;32853;52.164;5.400;2023-03-01T04:20:46;102763.38;;;-0.74;100.00
47104;BME280;32853;52.164;5.400;2023-03-01T04:23:20;103028.28;;;0.66;100.00
47104;BME280;32853;52.164;5.400;2023-03-01T04:25:57;102757.47;;;-0.94;100.00
47104;BME280;32853;52.164;5.400;2023-03-01T04:28:28;103038.88;;;0.74;100.00
47104;BME280;32853;52.164;5.400;2023-03-01T04:30:55;102956.50;;;0.26;100.00
47104;BME280;32853;52.164;5.400;2023-03-01T04:33:22;102951.00;;;0.17;100.00
47104;BME280;32853;52.164;5.400;2023-03-01T04:35:49;102979.22;;;0.38;100.00
47104;BME280;32853;52.164;5.400;2023-03-01T04:38:19;102958.81;;;0.20;100.00
47104;BME280;32853;52.164;5.400;2023-03-01T04:40:45;103035.09;;;0.64;100.00
47104;BME280;32853;52.164;5.400;2023-03-01T04:43:11;102998.22;;;0.41;100.00
47104;BME280;32853;52.164;5.400;2023-03-01T04:45:39;102949.97;;;0.12;100.00
47104;BME280;32853;52.164;5.400;2023-03-01T04:48:15;103038.38;;;0.60;100.00
47104;BME280;32853;52.164;5.400;2023-03-01T04:50:40;103023.31;;;0.47;100.00
47104;BME280;32853;52.164;5.400;2023-03-01T04:53:05;103022.38;;;0.45;100.00
47104;BME280;32853;52.164;5.400;2023-03-01T04:55:31;103031.72;;;0.43;100.00
47104;BME280;32853;52.164;5.400;2023-03-01T04:57:59;102986.31;;;0.21;100.00
47104;BME280;32853;52.164;5.400;2023-03-01T05:00:25;103025.75;;;0.44;100.00
47104;BME280;32853;52.164;5.400;2023-03-01T05:02:51;102996.75;;;0.48;100.00
47104;BME280;32853;52.164;5.400;2023-03-01T05:05:35;102908.72;;;0.10;100.00
47104;BME280;32853;52.164;5.400;2023-03-01T05:08:05;102943.78;;;0.31;100.00
47104;BME280;32853;52.164;5.400;2023-03-01T05:10:36;102985.56;;;0.47;100.00
47104;BME280;32853;52.164;5.400;2023-03-01T05:13:03;102967.75;;;0.53;100.00
47104;BME280;32853;52.164;5.400;2023-03-01T05:15:30;102985.63;;;0.49;100.00
47104;BME280;32853;52.164;5.400;2023-03-01T05:17:57;102980.63;;;0.53;100.00
47104;BME280;32853;52.164;5.400;2023-03-01T05:20:25;102952.94;;;0.22;100.00
47104;BME280;32853;52.164;5.400;2023-03-01T05:22:59;102965.09;;;0.50;100.00
47104;BME280;32853;52.164;5.400;2023-03-01T05:25:25;102827.19;;;-0.40;100.00
47104;BME280;32853;52.164;5.400;2023-03-01T05:27:57;102891.81;;;-0.07;100.00
47104;BME280;32853;52.164;5.400;2023-03-01T05:30:39;102816.31;;;-0.55;100.00
47104;BME280;32853;52.164;5.400;2023-03-01T05:33:05;102917.00;;;0.02;100.00
47104;BME280;32853;52.164;5.400;2023-03-01T05:35:35;102945.28;;;0.24;100.00
47104;BME280;32853;52.164;5.400;2023-03-01T05:38:00;102973.13;;;0.36;100.00
47104;BME280;32853;52.164;5.400;2023-03-01T05:40:26;102964.53;;;0.35;100.00
47104;BME280;32853;52.164;5.400;2023-03-01T05:42:56;102936.94;;;0.31;100.00
47104;BME280;32853;52.164;5.400;2023-03-01T05:45:23;102963.28;;;0.48;100.00
47104;BME280;32853;52.164;5.400;2023-03-01T05:47:49;102965.28;;;0.33;100.00
47104;BME280;32853;52.164;5.400;2023-03-01T05:53:03;102874.28;;;-0.17;100.00
47104;BME280;32853;52.164;5.400;2023-03-01T05:55:32;102953.69;;;0.20;100.00
47104;BME280;32853;52.164;5.400;2023-03-01T05:58:02;102940.31;;;0.30;100.00
47104;BME280;32853;52.164;5.400;2023-03-01T06:00:29;102859.84;;;-0.14;100.00
47104;BME280;32853;52.164;5.400;2023-03-01T06:02:56;102940.38;;;0.32;100.00
47104;BME280;32853;52.164;5.400;2023-03-01T06:05:23;102945.28;;;0.24;100.00
47104;BME280;32853;52.164;5.400;2023-03-01T06:07:48;102946.78;;;0.19;100.00
47104;BME280;32853;52.164;5.400;2023-03-01T06:10:15;102852.00;;;-0.41;100.00
47104;BME280;32853;52.164;5.400;2023-03-01T06:12:42;102762.63;;;-0.94;100.00
47104;BME280;32853;52.164;5.400;2023-03-01T06:15:09;102923.06;;;0.04;100.00
47104;BME280;32853;52.164;5.400;2023-03-01T06:17:41;102952.59;;;0.13;100.00
47104;BME280;32853;52.164;5.400;2023-03-01T06:20:27;102952.66;;;0.15;100.00
47104;BME280;32853;52.164;5.400;2023-03-01T06:22:55;102945.91;;;0.18;100.00
47104;BME280;32853;52.164;5.400;2023-03-01T06:25:25;102954.44;;;0.17;100.00
47104;BME280;32853;52.164;5.400;2023-03-01T06:27:51;102911.41;;;-0.11;100.00
47104;BME280;32853;52.164;5.400;2023-03-01T06:30:29;102958.28;;;0.05;100.00
47104;BME280;32853;52.164;5.400;2023-03-01T06:32:58;102952.25;;;0.04;100.00
47104;BME280;32853;52.164;5.400;2023-03-01T06:35:27;102963.09;;;0.19;100.00
47104;BME280;32853;52.164;5.400;2023-03-01T06:37:55;102957.69;;;0.12;100.00
47104;BME280;32853;52.164;5.400;2023-03-01T06:40:22;102903.28;;;-0.21;100.00
47104;BME280;32853;52.164;5.400;2023-03-01T06:42:49;102787.06;;;-0.81;100.00
47104;BME280;32853;52.164;5.400;2023-03-01T06:45:15;102951.66;;;0.11;100.00
47104;BME280;32853;52.164;5.400;2023-03-01T06:47:41;102931.31;;;-0.05;100.00
47104;BME280;32853;52.164;5.400;2023-03-01T06:50:09;102959.38;;;0.11;100.00
47104;BME280;32853;52.164;5.400;2023-03-01T06:52:35;102894.31;;;-0.33;100.00
47104;BME280;32853;52.164;5.400;2023-03-01T06:55:01;102915.09;;;-0.26;100.00
47104;BME280;32853;52.164;5.400;2023-03-01T06:57:26;102935.44;;;-0.10;100.00
47104;BME280;32853;52.164;5.400;2023-03-01T06:59:54;102965.97;;;0.05;100.00
47104;BME280;32853;52.164;5.400;2023-03-01T07:02:21;102959.59;;;0.17;100.00
47104;BME280;32853;52.164;5.400;2023-03-01T07:04:49;102892.06;;;-0.23;100.00
47104;BME280;32853;52.164;5.400;2023-03-01T07:07:17;102945.69;;;0.12;100.00
47104;BME280;32853;52.164;5.400;2023-03-01T07:09:52;102950.91;;;0.14;100.00
47104;BME280;32853;52.164;5.400;2023-03-01T07:12:18;102950.19;;;0.18;100.00
47104;BME280;32853;52.164;5.400;2023-03-01T07:14:44;102948.13;;;0.09;100.00
47104;BME280;32853;52.164;5.400;2023-03-01T07:17:10;102901.91;;;-0.12;100.00
47104;BME280;32853;52.164;5.400;2023-03-01T07:19:39;102957.75;;;0.13;100.00
47104;BME280;32853;52.164;5.400;2023-03-01T07:22:06;102907.88;;;-0.13;100.00
47104;BME280;32853;52.164;5.400;2023-03-01T07:24:33;102952.69;;;0.16;100.00
47104;BME280;32853;52.164;5.400;2023-03-01T07:26:59;102884.44;;;-0.22;100.00
47104;BME280;32853;52.164;5.400;2023-03-01T07:29:25;102975.97;;;0.19;100.00
47104;BME280;32853;52.164;5.400;2023-03-01T07:31:51;102960.56;;;0.21;100.00
47104;BME280;32853;52.164;5.400;2023-03-01T07:34:16;102965.19;;;0.29;100.00
47104;BME280;32853;52.164;5.400;2023-03-01T07:36:43;102967.75;;;0.29;100.00
47104;BME280;32853;52.164;5.400;2023-03-01T07:39:11;102965.19;;;0.29;100.00
47104;BME280;32853;52.164;5.400;2023-03-01T07:41:36;102971.59;;;0.41;100.00
47104;BME280;32853;52.164;5.400;2023-03-01T07:44:02;102813.41;;;-0.42;100.00
47104;BME280;32853;52.164;5.400;2023-03-01T07:46:36;102975.34;;;0.49;100.00
47104;BME280;32853;52.164;5.400;2023-03-01T07:49:18;102974.75;;;0.56;100.00
47104;BME280;32853;52.164;5.400;2023-03-01T07:51:44;102896.97;;;0.17;100.00
47104;BME280;32853;52.164;5.400;2023-03-01T07:54:09;102823.59;;;-0.21;100.00
47104;BME280;32853;52.164;5.400;2023-03-01T07:56:35;102932.38;;;0.48;100.00
47104;BME280;32853;52.164;5.400;2023-03-01T07:59:02;102969.72;;;0.84;100.00
47104;BME280;32853;52.164;5.400;2023-03-01T08:01:27;102945.28;;;0.73;100.00
47104;BME280;32853;52.164;5.400;2023-03-01T08:03:58;102884.09;;;0.41;100.00
47104;BME280;32853;52.164;5.400;2023-03-01T08:06:23;102907.47;;;0.47;100.00
47104;BME280;32853;52.164;5.400;2023-03-01T08:08:49;102886.19;;;0.52;100.00
47104;BME280;32853;52.164;5.400;2023-03-01T08:11:14;102729.06;;;-0.28;100.00
47104;BME280;32853;52.164;5.400;2023-03-01T08:13:41;102918.28;;;0.87;100.00
47104;BME280;32853;52.164;5.400;2023-03-01T08:16:13;102875.38;;;0.63;100.00
47104;BME280;32853;52.164;5.400;2023-03-01T08:18:43;102959.69;;;1.44;100.00
47104;BME280;32853;52.164;5.400;2023-03-01T08:21:11;102953.78;;;1.49;100.00
47104;BME280;32853;52.164;5.400;2023-03-01T08:23:40;102930.31;;;1.41;100.00
47104;BME280;32853;52.164;5.400;2023-03-01T08:26:21;102955.31;;;1.70;100.00
47104;BME280;32853;52.164;5.400;2023-03-01T08:28:49;102901.19;;;1.43;100.00
47104;BME280;32853;52.164;5.400;2023-03-01T08:31:19;102959.47;;;1.94;100.00
47104;BME280;32853;52.164;5.400;2023-03-01T08:33:48;102889.97;;;1.70;100.00
47104;BME280;32853;52.164;5.400;2023-03-01T08:36:18;102962.22;;;2.30;100.00
47104;BME280;32853;52.164;5.400;2023-03-01T08:38:49;102899.28;;;2.25;100.00
47104;BME280;32853;52.164;5.400;2023-03-01T08:41:32;102895.13;;;2.31;100.00
47104;BME280;32853;52.164;5.400;2023-03-01T08:44:04;102939.25;;;2.71;100.00
47104;BME280;32853;52.164;5.400;2023-03-01T08:46:34;102952.72;;;2.92;100.00
47104;BME280;32853;52.164;5.400;2023-03-01T08:49:12;102944.25;;;2.99;100.00
47104;BME280;32853;52.164;5.400;2023-03-01T08:51:38;102968.81;;;3.15;100.00
47104;BME280;32853;52.164;5.400;2023-03-01T08:54:06;102905.81;;;3.11;100.00
47104;BME280;32853;52.164;5.400;2023-03-01T08:56:33;102907.09;;;3.30;100.00
47104;BME280;32853;52.164;5.400;2023-03-01T08:58:59;102906.84;;;3.56;100.00
47104;BME280;32853;52.164;5.400;2023-03-01T09:01:25;102859.72;;;3.31;100.00
47104;BME280;32853;52.164;5.400;2023-03-01T09:03:50;102937.00;;;3.94;100.00
47104;BME280;32853;52.164;5.400;2023-03-01T09:06:17;102837.72;;;3.50;100.00
47104;BME280;32853;52.164;5.400;2023-03-01T09:08:45;102928.16;;;4.27;100.00
47104;BME280;32853;52.164;5.400;2023-03-01T09:11:13;102926.72;;;4.43;100.00
47104;BME280;32853;52.164;5.400;2023-03-01T09:13:40;102892.13;;;4.39;100.00
47104;BME280;32853;52.164;5.400;2023-03-01T09:16:08;102858.81;;;4.11;92.16
47104;BME280;32853;52.164;5.400;2023-03-01T09:19:02;102900.66;;;4.80;94.98
47104;BME280;32853;52.164;5.400;2023-03-01T09:21:34;102884.06;;;4.71;90.14
47104;BME280;32853;52.164;5.400;2023-03-01T09:24:13;102877.50;;;4.91;85.96
47104;BME280;32853;52.164;5.400;2023-03-01T09:26:45;102883.94;;;5.16;88.17
47104;BME280;32853;52.164;5.400;2023-03-01T09:29:13;102892.00;;;5.34;84.44
47104;BME280;32853;52.164;5.400;2023-03-01T09:31:47;102877.31;;;5.36;80.60
47104;BME280;32853;52.164;5.400;2023-03-01T09:34:14;102888.31;;;5.20;78.76
47104;BME280;32853;52.164;5.400;2023-03-01T09:36:45;102891.25;;;5.43;80.45
47104;BME280;32853;52.164;5.400;2023-03-01T09:39:14;102896.56;;;5.52;77.56
47104;BME280;32853;52.164;5.400;2023-03-01T09:41:59;102886.63;;;5.87;79.10
47104;BME280;32853;52.164;5.400;2023-03-01T09:44:56;102885.97;;;5.99;79.74
47104;BME280;32853;52.164;5.400;2023-03-01T09:47:40;102880.72;;;5.94;75.29
47104;BME280;32853;52.164;5.400;2023-03-01T09:50:19;102886.75;;;5.93;73.09
47104;BME280;32853;52.164;5.400;2023-03-01T09:55:31;102883.56;;;6.17;69.44
47104;BME280;32853;52.164;5.400;2023-03-01T09:58:27;102883.91;;;6.49;67.97
47104;BME280;32853;52.164;5.400;2023-03-01T10:00:56;102870.94;;;6.52;67.56
47104;BME280;32853;52.164;5.400;2023-03-01T10:06:32;102888.44;;;6.68;63.19
47104;BME280;32853;52.164;5.400;2023-03-01T10:09:05;102875.44;;;6.70;63.25
47104;BME280;32853;52.164;5.400;2023-03-01T10:11:37;102866.78;;;6.69;63.00
47104;BME280;32853;52.164;5.400;2023-03-01T10:17:03;102874.94;;;7.18;60.34
47104;BME280;32853;52.164;5.400;2023-03-01T10:19:33;102881.94;;;7.22;61.07
47104;BME280;32853;52.164;5.400;2023-03-01T10:22:16;102875.06;;;7.38;59.77
47104;BME280;32853;52.164;5.400;2023-03-01T10:24:50;102879.34;;;7.24;58.94
47104;BME280;32853;52.164;5.400;2023-03-01T10:27:25;102869.66;;;7.06;59.29
47104;BME280;32853;52.164;5.400;2023-03-01T10:30:45;102871.47;;;7.18;57.50
47104;BME280;32853;52.164;5.400;2023-03-01T10:33:35;102850.78;;;7.38;56.79
47104;BME280;32853;52.164;5.400;2023-03-01T10:36:03;102875.19;;;7.55;57.13
47104;BME280;32853;52.164;5.400;2023-03-01T10:38:31;102862.97;;;7.43;56.21
47104;BME280;32853;52.164;5.400;2023-03-01T10:41:06;102776.13;;;7.31;55.79
47104;BME280;32853;52.164;5.400;2023-03-01T10:43:59;102860.63;;;7.98;54.93
47104;BME280;32853;52.164;5.400;2023-03-01T10:46:31;102850.19;;;8.01;55.02
47104;BME280;32853;52.164;5.400;2023-03-01T10:51:43;102855.34;;;7.81;53.21
47104;BME280;32853;52.164;5.400;2023-03-01T10:57:29;102832.06;;;8.36;51.35
47104;BME280;32853;52.164;5.400;2023-03-01T11:00:17;102824.13;;;8.04;50.94
47104;BME280;32853;52.164;5.400;2023-03-01T11:03:01;102840.69;;;8.23;50.02
47104;BME280;32853;52.164;5.400;2023-03-01T11:05:57;102788.53;;;8.08;50.20
47104;BME280;32853;52.164;5.400;2023-03-01T11:08:46;102823.38;;;8.43;50.37
47104;BME280;32853;52.164;5.400;2023-03-01T11:11:32;102809.44;;;8.32;48.54
47104;BME280;32853;52.164;5.400;2023-03-01T11:14:13;102804.25;;;8.61;49.42
47104;BME280;32853;52.164;5.400;2023-03-01T11:16:43;102770.34;;;8.58;48.64
47104;BME280;32853;52.164;5.400;2023-03-01T11:24:33;102795.47;;;9.08;47.43
47104;BME280;32853;52.164;5.400;2023-03-01T11:27:00;102793.72;;;9.21;48.97
47104;BME280;32853;52.164;5.400;2023-03-01T11:29:50;102785.97;;;8.92;48.99
47104;BME280;32853;52.164;5.400;2023-03-01T11:32:17;102782.47;;;8.96;48.85
47104;BME280;32853;52.164;5.400;2023-03-01T11:35:09;102785.91;;;9.07;48.46
47104;BME280;32853;52.164;5.400;2023-03-01T11:37:41;102788.41;;;9.45;49.09
47104;BME280;32853;52.164;5.400;2023-03-01T11:40:37;102767.50;;;9.54;47.57
47104;BME280;32853;52.164;5.400;2023-03-01T11:43:18;102798.84;;;9.54;46.68
47104;BME280;32853;52.164;5.400;2023-03-01T11:48:35;102776.03;;;9.81;46.37
47104;BME280;32853;52.164;5.400;2023-03-01T11:57:37;102770.91;;;9.61;46.40
47104;BME280;32853;52.164;5.400;2023-03-01T12:19:01;102730.13;;;9.37;45.77
47104;BME280;32853;52.164;5.400;2023-03-01T12:30:03;102774.41;;;9.61;44.44
47104;BME280;32853;52.164;5.400;2023-03-01T12:32:52;102758.72;;;9.61;44.41
47104;BME280;32853;52.164;5.400;2023-03-01T12:36:05;102754.16;;;9.99;44.91
47104;BME280;32853;52.164;5.400;2023-03-01T12:38:57;102738.47;;;9.97;44.83
47104;BME280;32853;52.164;5.400;2023-03-01T12:41:37;102738.25;;;10.29;44.81
47104;BME280;32853;52.164;5.400;2023-03-01T12:50:12;102736.22;;;10.65;43.52
47104;BME280;32853;52.164;5.400;2023-03-01T12:52:49;102691.84;;;10.54;43.30
47104;BME280;32853;52.164;5.400;2023-03-01T13:07:14;102695.72;;;10.09;43.07
47104;BME280;32853;52.164;5.400;2023-03-01T13:13:18;102698.25;;;10.15;43.44
47104;BME280;32853;52.164;5.400;2023-03-01T13:15:44;102671.22;;;10.16;42.59
47104;BME280;32853;52.164;5.400;2023-03-01T13:20:50;102693.00;;;10.16;42.38
47104;BME280;32853;52.164;5.400;2023-03-01T13:23:37;102686.00;;;10.26;41.46
47104;BME280;32853;52.164;5.400;2023-03-01T13:26:14;102682.75;;;9.92;41.63
47104;BME280;32853;52.164;5.400;2023-03-01T13:28:50;102677.34;;;10.15;41.46
47104;BME280;32853;52.164;5.400;2023-03-01T13:36:11;102619.44;;;10.56;42.02
47104;BME280;32853;52.164;5.400;2023-03-01T13:41:49;102663.19;;;10.40;42.51
47104;BME280;32853;52.164;5.400;2023-03-01T13:46:51;102633.44;;;10.51;42.93
47104;BME280;32853;52.164;5.400;2023-03-01T13:49:23;102650.13;;;10.39;42.47
47104;BME280;32853;52.164;5.400;2023-03-01T13:51:51;102645.81;;;10.35;42.88
47104;BME280;32853;52.164;5.400;2023-03-01T13:54:32;102621.09;;;10.62;42.83
47104;BME280;32853;52.164;5.400;2023-03-01T13:56:59;102556.25;;;10.11;42.46
47104;BME280;32853;52.164;5.400;2023-03-01T13:59:26;102597.06;;;10.28;42.21
47104;BME280;32853;52.164;5.400;2023-03-01T14:01:59;102605.31;;;10.69;42.23
47104;BME280;32853;52.164;5.400;2023-03-01T14:04:34;102631.47;;;10.71;41.42
47104;BME280;32853;52.164;5.400;2023-03-01T14:07:17;102628.34;;;10.37;41.84
47104;BME280;32853;52.164;5.400;2023-03-01T14:09:56;102610.22;;;10.20;42.06
47104;BME280;32853;52.164;5.400;2023-03-01T14:18:29;102594.78;;;10.75;41.55
47104;BME280;32853;52.164;5.400;2023-03-01T14:21:08;102554.91;;;10.55;41.82
47104;BME280;32853;52.164;5.400;2023-03-01T14:23:33;102587.72;;;10.81;41.88
47104;BME280;32853;52.164;5.400;2023-03-01T14:26:00;102591.91;;;10.20;41.78
47104;BME280;32853;52.164;5.400;2023-03-01T14:28:37;102575.13;;;10.44;40.87
47104;BME280;32853;52.164;5.400;2023-03-01T14:33:55;102556.06;;;10.30;41.28
47104;BME280;32853;52.164;5.400;2023-03-01T14:36:31;102568.22;;;10.35;41.30
47104;BME280;32853;52.164;5.400;2023-03-01T14:38:57;102577.91;;;10.27;41.78
47104;BME280;32853;52.164;5.400;2023-03-01T14:41:33;102533.84;;;9.89;41.74
47104;BME280;32853;52.164;5.400;2023-03-01T14:44:15;102556.53;;;10.67;41.91
47104;BME280;32853;52.164;5.400;2023-03-01T14:46:44;102536.59;;;10.55;41.83
47104;BME280;32853;52.164;5.400;2023-03-01T14:49:15;102557.88;;;10.25;41.21
47104;BME280;32853;52.164;5.400;2023-03-01T14:51:49;102563.53;;;10.62;40.88
47104;BME280;32853;52.164;5.400;2023-03-01T14:54:27;102567.50;;;10.18;40.15
47104;BME280;32853;52.164;5.400;2023-03-01T14:56:57;102535.94;;;9.49;39.59
47104;BME280;32853;52.164;5.400;2023-03-01T14:59:29;102528.72;;;9.74;40.20
47104;BME280;32853;52.164;5.400;2023-03-01T15:02:00;102565.41;;;9.66;40.83
47104;BME280;32853;52.164;5.400;2023-03-01T15:04:36;102568.69;;;9.86;40.72
47104;BME280;32853;52.164;5.400;2023-03-01T15:07:02;102565.97;;;9.97;41.13
47104;BME280;32853;52.164;5.400;2023-03-01T15:09:33;102565.06;;;10.03;41.30
47104;BME280;32853;52.164;5.400;2023-03-01T15:12:45;102554.66;;;9.95;41.56
47104;BME280;32853;52.164;5.400;2023-03-01T15:15:21;102552.69;;;10.17;41.46
47104;BME280;32853;52.164;5.400;2023-03-01T15:17:53;102499.84;;;9.90;41.62